TA1EKK-12 messages


fromtotime message
TA1EKK-12 TA1EKK-7 08/29 11:36:58z Send another GGGGGGGGGFFF{A21
TA1EKK-12 TA1ALB 08/29 11:02:04z Send another TTTT 3434{A20
TA1EKK-12 TA1ALB 08/29 10:59:30z Send another FAAAT IS IS 3DE{A19
TA1EKK-12 TA1ALB-11 08/29 10:56:52z Send another FFFFRRCD{A18
TA1EKK-12 TA1ALB-11 08/29 10:56:10z Send another TDEWDT76F{A17
TA1EKK-12 TA1EKK-1 08/28 22:44:23z Send another EE11{A69
TA1EKK-12 TA1EKK-1 08/28 22:39:19z Send another RF OMLY{A68
TA1EKK-12 TA1EKK-1 08/28 22:33:57z Send another RF TEST DIREK MESAJ{A67
TA1EKK-12 TA1EKK-1 08/28 22:32:43z Send another RF SADECE{A66
TA1EKK-12 TA1DX-9 08/28 13:41:26z Send another RF ILK MESAJ{A98
TA1EKK-7 TA1EKK-12 08/24 13:59:55z Reply jpgajdmjtpjakgj{37
TA1EKK-12 TA1EKK-7 08/24 13:41:00z Send another TEST A{A25
TA1DX-3 TA1EKK-12 08/21 21:29:19z Reply birak onu digerine yuklen{14
TA1EKK-12 TA1DX-3 08/21 21:28:54z Send another FT8 DE EKLEYELIM MI{A63
TA1EKK-12 TA1DX-3 08/21 21:28:09z Send another HARIKA OLDU ALEV BEN KOLAY KOLAY BEGENMEM AMA GUZEL OLDU BU SEFER{A62
TA1EKK-12 TA1DX-3 08/21 21:26:23z Send another YOLLADIM RESIM BAK{A61
TA1DX-3 TA1EKK-12 08/21 21:24:30z Reply ha ha ha{13
TA1EKK-12 TA1DX-3 08/21 21:23:18z Send another YOK ABI ALEVE HAVA DURUMU EKLIYORUM{A60
TA1DX-3 TA1EKK-12 08/21 21:13:17z Reply Uyku tutmadi mi?{12
TA1DX-3 TA1EKK-12 08/21 21:13:02z Reply tst{11
TA1EKK-12 TA1DX-9 08/14 18:21:15z Send another 1234567890{A07
TA1EKK-12 TA1DX-12 08/14 15:37:27z Send another YOLDASIN GORUYORUM{A18
TA1EKK-12 TA1DX-9 08/14 10:09:28z Send another SELAM{A35
TA1EKK-12 TA1DX-1 08/13 21:26:18z Send another GECE YARISI MESAJI{A20
TA1DX TA1EKK-12 08/13 17:49:54z Reply Hayirli yolculuklar{1596
TA1EKK-12 TA1DX-9 08/12 11:45:59z Send another ALEV TEKRAR DEMIYOR{A40
TA1EKK-12 TA1DX-1 08/12 11:42:09z Send another ALEVDEN ILK MESAJIN BURADA{A39
TA1EKK-12 TA1EKK-11 08/12 11:39:23z Send another ALEVIN ILK MESAJI{A38
TA1DX TA1EKK-12 08/03 14:37:52z Reply Selam Alev.. :){8668
TA1EKK-13 TA1EKK-12 08/02 20:11:27z Reply Selam 12 ben 13{AE}A5
TA1EKK-13 TA1EKK-12 08/02 19:14:23z Reply Selam 12 ben 11{AD}A3
TA1DX-9 TA1EKK-12 07/16 17:58:52z Reply 73{55
TA1DX-9 TA1EKK-12 07/15 13:03:25z Reply tm{54
TA1EKK-11 TA1EKK-12 07/15 11:53:05z Reply 11den 12ye{32
TA1DX-9 TA1EKK-12 07/15 11:36:09z Reply ?{52
TA1DX-9 TA1EKK-12 07/15 11:34:49z Reply 73{51
TA1DX-6 TA1EKK-12 07/15 11:27:33z Reply testi{1
TA1EKK-11 TA1EKK-12 07/15 11:21:13z Reply deneme ack donecek mi acaba?{27
TA1EKK-11 TA1EKK-12 07/15 11:14:13z Reply deneme deneme ack orda misin{26
TA1EKK-11 TA1EKK-12 07/15 11:07:03z Reply ekran kapali{24
TA1EKK-11 TA1EKK-12 07/15 09:57:03z Reply bu sefer de olmadiysa eger{21
TA1EKK-11 TA1EKK-12 07/15 08:07:00z Reply beceremedim yine olmadi{18
TA1EKK-11 TA1EKK-12 07/15 07:45:03z Reply geri yukleme yapildi {17
TA1EKK-11 TA1EKK-12 07/15 06:13:03z Reply 3. mesaj{9
TA1EKK-11 TA1EKK-12 07/15 06:12:14z Reply 2. mesaj{8
TA1EKK-11 TA1EKK-12 07/15 06:12:02z Reply 1. mesaj{7
TA1EKK-11 TA1EKK-12 07/15 06:08:24z Reply son deneme yordun beni Alev{6
TA1EKK-11 TA1EKK-12 07/15 05:27:28z Reply olmamis yine{5
TA1EKK-11 TA1EKK-12 07/15 05:11:27z Reply 11den 12ye deneme{4
TA1EKK-11 TA1EKK-12 07/14 20:50:12z Reply Alev seni yerim....{2
TA1EKK-11 TA1EKK-12 07/14 20:47:15z Reply naber tuylu bamya{1
TA1DX-5 TA1EKK-12 07/14 15:15:52z Reply Test {1
TA1EKK-12 TA1EKK-12 07/13 21:25:32z Send another BITS.00000000,ALEV APRS Terminal
TA1EKK-12 TA1EKK-12 07/13 21:25:32z Send another EQNS.0,1,-100,0,1,0,0,1,0,0,1,0,0,1,0
TA1EKK-12 TA1EKK-12 07/13 21:25:32z Send another UNIT.dBm,C,,,,on,on,on,on,on,on,on,on
TA1EKK-12 TA1EKK-12 07/13 21:25:32z Send another PARM.RSSI,CPU,Batarya%,,,IS,GPS,SonKonum,TNC,RF>IS,RF>RF,IS>RF,BCN
TA1EKK-12 TA1EKK-12 07/10 16:16:27z Send another PARM.RSSI,CPU,Batarya %,,,IS,GPS,SonKonum,TNC,RF>IS,RF>RF,IS>RF,BCN
TA1EKK-12 TA1EKK-12 07/10 11:04:20z Send another PARM.RSSI,CPU,Batarya:%,,,IS,GPS,SonKonum,TNC,RF>IS,RF>RF,IS>RF,BCN
TA1EKK-12 TA1EKK-12 07/10 10:37:31z Send another UNIT.dBm,C,%,,,on,on,on,on,on,on,on,on
TA1EKK-12 TA1EKK-12 07/10 10:37:31z Send another PARM.RSSI,CPU,Batarya,,,IS,GPS,SonKonum,TNC,RF->IS,RF->RF,IS->RF,BCN
TA1EKK-12 TA1EKK-12 07/10 01:43:53z Send another EQNS.0,1,0,0,1,0,0,1,-100,0,1,0,0,1,0
TA1EKK-12 TA1EKK-12 07/10 01:43:53z Send another UNIT.RFpkt,paket,dBm,C,dak,on,on,on,on,on,on,on,on
TA1EKK-12 TA1EKK-12 07/10 01:43:53z Send another PARM.Duyuldu,IGate,RSSI,CPU,Calisma,WiFi,IS,GPS,SonKonum,TNC,IGate,Digi,BCN
TA1EKK-12 TA1EKK-12 07/09 19:37:29z Send another UNIT.pkt,pkt,dBm,C,min,on,on,on,on,on,on,on,on
TA1EKK-12 TA1EKK-12 07/09 19:37:29z Send another PARM.R,I,RSSI,TEMP,UP,WiFi,IS,GPS,SonKonum,TNC,IGate,Digi,BCN
TA1EKK-12 TA1EKK-12 07/09 19:02:50z Send another PARM.R,I,RSSI,TEMP,UP,WiFi,APRS,GPS,SABIT,TNC,IGate,Digi,BCN
TA1EKK-12 TA1EKK-12 07/09 18:27:18z Send another PARM.R,I,RSSI,TEMP,UP,WiFi,APRS,GPS,LAST,TNC,PSRAM,TOUCH,BCN